createdAt,value
2018-01-01T00:00:32.531Z,992.8
2018-01-01T00:01:13.100Z,992.8
2018-01-01T00:01:53.672Z,992.78
2018-01-01T00:02:34.229Z,992.8
2018-01-01T00:03:14.797Z,992.82
2018-01-01T00:03:55.371Z,992.8
2018-01-01T00:04:35.938Z,992.79
2018-01-01T00:05:16.488Z,992.81
2018-01-01T00:05:57.095Z,992.8
2018-01-01T00:06:37.632Z,992.73
2018-01-01T00:07:18.209Z,992.81
2018-01-01T00:07:58.766Z,992.77
2018-01-01T00:08:39.320Z,992.83
2018-01-01T00:09:19.882Z,992.75
2018-01-01T00:10:00.451Z,992.75
2018-01-01T00:10:41.010Z,992.77
2018-01-01T00:11:21.574Z,992.68
2018-01-01T00:12:02.140Z,992.71
2018-01-01T00:12:42.702Z,992.77
2018-01-01T00:13:23.284Z,992.75
2018-01-01T00:14:03.857Z,992.77
2018-01-01T00:14:44.427Z,992.76
2018-01-01T00:15:24.994Z,992.83
2018-01-01T00:16:05.556Z,992.83
2018-01-01T00:16:46.114Z,992.81
2018-01-01T00:17:26.711Z,992.81
2018-01-01T00:18:07.271Z,992.79
2018-01-01T00:18:47.836Z,992.82
2018-01-01T00:19:28.423Z,992.73
2018-01-01T00:20:08.989Z,992.81
2018-01-01T00:20:49.553Z,992.81
2018-01-01T00:21:30.112Z,992.71
2018-01-01T00:22:10.685Z,992.74
2018-01-01T00:22:51.245Z,992.78
2018-01-01T00:23:31.817Z,992.73
2018-01-01T00:24:12.374Z,992.79
2018-01-01T00:24:52.960Z,992.74
2018-01-01T00:25:33.519Z,992.73
2018-01-01T00:26:14.090Z,992.8
2018-01-01T00:26:54.644Z,992.77
2018-01-01T00:27:35.209Z,992.8
2018-01-01T00:28:15.784Z,992.73
2018-01-01T00:28:56.399Z,992.79
2018-01-01T00:29:36.926Z,992.75
2018-01-01T00:30:17.499Z,992.75
2018-01-01T00:30:58.057Z,992.8
2018-01-01T00:31:38.631Z,992.8
2018-01-01T00:32:19.194Z,992.75
2018-01-01T00:32:59.771Z,992.77
2018-01-01T00:33:40.372Z,992.77
2018-01-01T00:34:20.951Z,992.78
2018-01-01T00:35:01.508Z,992.7
2018-01-01T00:35:42.082Z,992.71
2018-01-01T00:36:22.644Z,992.73
2018-01-01T00:37:03.209Z,992.75
2018-01-01T00:37:43.769Z,992.72
2018-01-01T00:38:24.363Z,992.67
2018-01-01T00:39:04.965Z,992.77
2018-01-01T00:39:45.527Z,992.73
2018-01-01T00:40:26.101Z,992.76
2018-01-01T00:41:06.659Z,992.69
2018-01-01T00:41:47.237Z,992.69
2018-01-01T00:42:27.818Z,992.72
2018-01-01T00:43:08.435Z,992.72
2018-01-01T00:43:48.981Z,992.69
2018-01-01T00:44:29.541Z,992.71
2018-01-01T00:45:10.108Z,992.72
2018-01-01T00:45:50.664Z,992.66
2018-01-01T00:46:31.225Z,992.6
2018-01-01T00:47:11.777Z,992.64
2018-01-01T00:47:52.333Z,992.62
2018-01-01T00:48:32.899Z,992.56
2018-01-01T00:49:13.458Z,992.62
2018-01-01T00:49:54.030Z,992.59
2018-01-01T00:50:34.584Z,992.61
2018-01-01T00:51:15.144Z,992.61
2018-01-01T00:51:55.716Z,992.59
2018-01-01T00:52:36.286Z,992.57
2018-01-01T00:53:16.840Z,992.58
2018-01-01T00:53:57.406Z,992.52
2018-01-01T00:54:37.981Z,992.55
2018-01-01T00:55:18.604Z,992.53
2018-01-01T00:55:59.688Z,992.54
2018-01-01T00:56:40.373Z,992.55
2018-01-01T00:57:20.940Z,992.52
2018-01-01T00:58:01.839Z,992.54
2018-01-01T00:58:42.745Z,992.53
2018-01-01T00:59:23.564Z,992.48
2018-01-01T01:00:05.205Z,992.5
2018-01-01T01:00:46.234Z,992.48
2018-01-01T01:01:28.263Z,992.49
2018-01-01T01:02:10.330Z,992.49
2018-01-01T01:02:50.889Z,992.48
2018-01-01T01:03:32.022Z,992.48
2018-01-01T01:04:12.740Z,992.53
2018-01-01T01:04:53.547Z,992.42
2018-01-01T01:05:34.608Z,992.47
2018-01-01T01:06:15.528Z,992.49
2018-01-01T01:06:56.105Z,992.48
2018-01-01T01:07:36.671Z,992.49
2018-01-01T01:08:17.251Z,992.44
2018-01-01T01:08:57.820Z,992.51
2018-01-01T01:09:38.424Z,992.52
2018-01-01T01:10:19.004Z,992.44
2018-01-01T01:10:59.587Z,992.46
2018-01-01T01:11:40.143Z,992.45
2018-01-01T01:12:20.695Z,992.51
2018-01-01T01:13:01.264Z,992.53
2018-01-01T01:13:41.821Z,992.56
2018-01-01T01:14:22.383Z,992.5
2018-01-01T01:15:02.972Z,992.52
2018-01-01T01:15:43.526Z,992.54
2018-01-01T01:16:24.092Z,992.52
2018-01-01T01:17:04.653Z,992.54
2018-01-01T01:17:45.222Z,992.56
2018-01-01T01:18:25.792Z,992.5
2018-01-01T01:19:06.367Z,992.53
2018-01-01T01:19:46.950Z,992.52
2018-01-01T01:20:27.518Z,992.58
2018-01-01T01:21:08.090Z,992.57
2018-01-01T01:21:48.655Z,992.55
2018-01-01T01:22:29.225Z,992.57
2018-01-01T01:23:09.795Z,992.58
2018-01-01T01:23:50.359Z,992.56
2018-01-01T01:24:30.923Z,992.57
2018-01-01T01:25:11.495Z,992.55
2018-01-01T01:25:52.049Z,992.49
2018-01-01T01:26:32.626Z,992.53
2018-01-01T01:27:13.181Z,992.55
2018-01-01T01:27:53.751Z,992.59
2018-01-01T01:28:34.316Z,992.57
2018-01-01T01:29:14.896Z,992.53
2018-01-01T01:29:55.475Z,992.58
2018-01-01T01:30:36.057Z,992.59
2018-01-01T01:31:16.616Z,992.55
2018-01-01T01:31:57.176Z,992.54
2018-01-01T01:32:37.745Z,992.58
2018-01-01T01:33:18.330Z,992.65
2018-01-01T01:33:58.889Z,992.61
2018-01-01T01:34:39.466Z,992.61
2018-01-01T01:35:20.035Z,992.6
2018-01-01T01:36:00.597Z,992.55
2018-01-01T01:36:41.160Z,992.54
2018-01-01T01:37:21.736Z,992.56
2018-01-01T01:38:02.292Z,992.55
2018-01-01T01:38:42.864Z,992.59
2018-01-01T01:39:23.437Z,992.61
2018-01-01T01:40:03.997Z,992.57
2018-01-01T01:40:44.571Z,992.59
2018-01-01T01:41:25.131Z,992.63
2018-01-01T01:42:05.701Z,992.64
2018-01-01T01:42:46.259Z,992.63
2018-01-01T01:43:26.817Z,992.66
2018-01-01T01:44:07.395Z,992.67
2018-01-01T01:44:47.966Z,992.64
2018-01-01T01:45:28.544Z,992.63
2018-01-01T01:46:09.122Z,992.72
2018-01-01T01:46:49.679Z,992.66
2018-01-01T01:47:30.245Z,992.65
2018-01-01T01:48:10.810Z,992.72
2018-01-01T01:48:51.386Z,992.74
2018-01-01T01:49:31.954Z,992.75
2018-01-01T01:50:12.534Z,992.77
2018-01-01T01:50:53.125Z,992.76
2018-01-01T01:51:33.664Z,992.77
2018-01-01T01:52:14.220Z,992.82
2018-01-01T01:52:54.777Z,992.78
2018-01-01T01:53:35.356Z,992.81
2018-01-01T01:54:15.911Z,992.84
2018-01-01T01:54:56.480Z,992.9
2018-01-01T01:55:37.040Z,992.87
2018-01-01T01:56:17.619Z,992.91
2018-01-01T01:56:58.185Z,992.93
2018-01-01T01:57:38.789Z,992.96
2018-01-01T01:58:19.341Z,992.94
2018-01-01T01:58:59.898Z,992.93
2018-01-01T01:59:40.465Z,992.91
2018-01-01T02:00:21.035Z,992.94
2018-01-01T02:01:01.592Z,992.95
2018-01-01T02:01:42.143Z,992.89
2018-01-01T02:02:22.723Z,992.98
2018-01-01T02:03:03.283Z,992.94
2018-01-01T02:03:43.845Z,992.97
2018-01-01T02:04:24.414Z,992.91
2018-01-01T02:05:04.983Z,992.93
2018-01-01T02:05:45.558Z,992.94
2018-01-01T02:06:26.125Z,992.92
2018-01-01T02:07:06.746Z,992.82
2018-01-01T02:07:47.308Z,992.83
2018-01-01T02:08:27.876Z,992.83
2018-01-01T02:09:08.446Z,992.82
2018-01-01T02:09:49.007Z,992.86
2018-01-01T02:10:29.574Z,992.76
2018-01-01T02:11:10.135Z,992.83
2018-01-01T02:11:50.707Z,992.8
2018-01-01T02:12:31.271Z,992.77
2018-01-01T02:13:11.825Z,992.75
2018-01-01T02:13:52.402Z,992.76
2018-01-01T02:14:32.978Z,992.72
2018-01-01T02:15:13.538Z,992.75
2018-01-01T02:15:54.118Z,992.7
2018-01-01T02:16:34.736Z,992.74
2018-01-01T02:17:15.303Z,992.76
2018-01-01T02:17:55.865Z,992.72
2018-01-01T02:18:36.473Z,992.7
2018-01-01T02:19:17.044Z,992.75
2018-01-01T02:19:57.612Z,992.76
2018-01-01T02:20:38.163Z,992.74
2018-01-01T02:21:18.733Z,992.73
2018-01-01T02:21:59.316Z,992.78
2018-01-01T02:22:39.875Z,992.77
2018-01-01T02:23:20.433Z,992.83
2018-01-01T02:24:00.990Z,992.83
2018-01-01T02:24:41.551Z,992.79
2018-01-01T02:25:22.153Z,992.77
2018-01-01T02:26:02.734Z,992.85
2018-01-01T02:26:43.296Z,992.86
2018-01-01T02:27:23.869Z,992.86
2018-01-01T02:28:04.437Z,992.92
2018-01-01T02:28:45.011Z,992.85
2018-01-01T02:29:25.569Z,992.89
2018-01-01T02:30:06.136Z,992.87
2018-01-01T02:30:46.749Z,992.89
2018-01-01T02:31:27.280Z,992.84
2018-01-01T02:32:07.833Z,992.87
2018-01-01T02:32:48.397Z,992.82
2018-01-01T02:33:28.965Z,992.91
2018-01-01T02:34:09.541Z,992.89
2018-01-01T02:34:50.102Z,992.87
2018-01-01T02:35:30.663Z,992.85
2018-01-01T02:36:11.228Z,992.8
2018-01-01T02:36:51.788Z,992.75
2018-01-01T02:37:32.347Z,992.8
2018-01-01T02:38:12.945Z,992.8
2018-01-01T02:38:53.505Z,992.9
2018-01-01T02:39:34.068Z,992.92
2018-01-01T02:40:14.637Z,992.91
2018-01-01T02:40:55.214Z,992.92
2018-01-01T02:41:35.784Z,992.93
2018-01-01T02:42:16.359Z,992.99
2018-01-01T02:42:56.918Z,992.96
2018-01-01T02:43:37.472Z,992.98
2018-01-01T02:44:18.043Z,992.98
2018-01-01T02:44:58.598Z,993.03
2018-01-01T02:45:39.161Z,993.02
2018-01-01T02:46:19.738Z,993.02
2018-01-01T02:47:00.301Z,993.03
2018-01-01T02:47:40.869Z,993.06
2018-01-01T02:48:21.445Z,993.04
2018-01-01T02:49:02.008Z,993.03
2018-01-01T02:49:42.570Z,993.06
2018-01-01T02:50:23.136Z,993.04
2018-01-01T02:51:03.700Z,993.12
2018-01-01T02:51:44.276Z,993.09
2018-01-01T02:52:24.838Z,993.16
2018-01-01T02:53:05.402Z,993.17
2018-01-01T02:53:45.981Z,993.17
2018-01-01T02:54:26.543Z,993.17
2018-01-01T02:55:07.126Z,993.11
2018-01-01T02:55:47.682Z,993.21
2018-01-01T02:56:28.248Z,993.18
2018-01-01T02:57:08.808Z,993.12
2018-01-01T02:57:49.383Z,993.14
2018-01-01T02:58:29.938Z,993.14
2018-01-01T02:59:10.496Z,993.1
2018-01-01T02:59:51.055Z,993.11
2018-01-01T03:00:31.606Z,993.01
2018-01-01T03:01:12.173Z,993.12
2018-01-01T03:01:52.733Z,993.12
2018-01-01T03:02:33.289Z,993.18
2018-01-01T03:03:13.867Z,993.21
2018-01-01T03:03:54.423Z,993.3
2018-01-01T03:04:34.990Z,993.27
2018-01-01T03:05:15.591Z,993.29
2018-01-01T03:05:56.218Z,993.31
2018-01-01T03:06:36.775Z,993.28
2018-01-01T03:07:17.360Z,993.29
2018-01-01T03:07:57.930Z,993.34
2018-01-01T03:08:38.503Z,993.32
2018-01-01T03:09:19.074Z,993.37
2018-01-01T03:09:59.647Z,993.37
2018-01-01T03:10:40.216Z,993.41
2018-01-01T03:11:20.781Z,993.41
2018-01-01T03:12:01.342Z,993.4
2018-01-01T03:12:42.291Z,993.43
2018-01-01T03:13:22.813Z,993.42
2018-01-01T03:14:03.388Z,993.45
2018-01-01T03:14:43.952Z,993.45
2018-01-01T03:15:24.526Z,993.46
2018-01-01T03:16:05.097Z,993.42
2018-01-01T03:16:45.658Z,993.42
2018-01-01T03:17:26.216Z,993.48
2018-01-01T03:18:06.787Z,993.49
2018-01-01T03:18:47.351Z,993.55
2018-01-01T03:19:27.915Z,993.51
2018-01-01T03:20:08.493Z,993.53
2018-01-01T03:20:49.067Z,993.53
2018-01-01T03:21:29.625Z,993.57
2018-01-01T03:22:10.209Z,993.57
2018-01-01T03:22:50.776Z,993.55
2018-01-01T03:23:31.345Z,993.57
2018-01-01T03:24:11.923Z,993.52
2018-01-01T03:24:52.475Z,993.54
2018-01-01T03:25:33.037Z,993.47
2018-01-01T03:26:13.646Z,993.48
2018-01-01T03:26:54.209Z,993.5
2018-01-01T03:27:34.788Z,993.55
2018-01-01T03:28:15.361Z,993.59
2018-01-01T03:28:55.943Z,993.58
2018-01-01T03:29:36.558Z,993.62
2018-01-01T03:30:17.134Z,993.6
2018-01-01T03:30:57.700Z,993.6
2018-01-01T03:31:38.264Z,993.57
2018-01-01T03:32:18.830Z,993.53
2018-01-01T03:32:59.393Z,993.51
2018-01-01T03:33:39.957Z,993.52
2018-01-01T03:34:20.541Z,993.61
2018-01-01T03:35:01.104Z,993.62
2018-01-01T03:35:41.674Z,993.67
2018-01-01T03:36:22.244Z,993.62
2018-01-01T03:37:02.895Z,993.67
2018-01-01T03:37:43.564Z,993.63
2018-01-01T03:38:24.149Z,993.62
2018-01-01T03:39:04.703Z,993.59
2018-01-01T03:39:45.314Z,993.63
2018-01-01T03:40:26.056Z,993.66
2018-01-01T03:41:06.674Z,993.65
2018-01-01T03:41:47.244Z,993.65
2018-01-01T03:42:27.804Z,993.65
2018-01-01T03:43:08.387Z,993.69
2018-01-01T03:43:48.994Z,993.68
2018-01-01T03:44:29.601Z,993.74
2018-01-01T03:45:10.174Z,993.71
2018-01-01T03:45:50.739Z,993.68
2018-01-01T03:46:31.312Z,993.72
2018-01-01T03:47:11.916Z,993.74
2018-01-01T03:47:52.477Z,993.76
2018-01-01T03:48:33.081Z,993.73
2018-01-01T03:49:13.712Z,993.81
2018-01-01T03:49:54.283Z,993.78
2018-01-01T03:50:34.860Z,993.76
2018-01-01T03:51:15.420Z,993.77
2018-01-01T03:51:55.996Z,993.75
2018-01-01T03:52:36.556Z,993.73
2018-01-01T03:53:17.166Z,993.79
2018-01-01T03:53:57.717Z,993.75
2018-01-01T03:54:38.299Z,993.75
2018-01-01T03:55:18.885Z,993.72
2018-01-01T03:55:59.451Z,993.72
2018-01-01T03:56:40.030Z,993.69
2018-01-01T03:57:20.632Z,993.65
2018-01-01T03:58:01.206Z,993.66
2018-01-01T03:58:41.776Z,993.65
2018-01-01T03:59:22.354Z,993.65
2018-01-01T04:00:02.930Z,993.66
2018-01-01T04:00:43.540Z,993.69
2018-01-01T04:01:24.127Z,993.72
2018-01-01T04:02:04.680Z,993.66
2018-01-01T04:02:45.263Z,993.72
2018-01-01T04:03:25.821Z,993.64
2018-01-01T04:04:06.398Z,993.63
2018-01-01T04:04:46.969Z,993.63
2018-01-01T04:05:27.545Z,993.62
2018-01-01T04:06:08.111Z,993.65
2018-01-01T04:06:48.687Z,993.64
2018-01-01T04:07:29.296Z,993.65
2018-01-01T04:08:09.878Z,993.66
2018-01-01T04:08:50.499Z,993.66
2018-01-01T04:09:31.063Z,993.64
2018-01-01T04:10:11.623Z,993.63
2018-01-01T04:10:52.190Z,993.66
2018-01-01T04:11:32.753Z,993.62
2018-01-01T04:12:13.324Z,993.63
2018-01-01T04:12:53.897Z,993.59
2018-01-01T04:13:34.499Z,993.64
2018-01-01T04:14:15.046Z,993.67
2018-01-01T04:14:55.624Z,993.69
2018-01-01T04:15:36.192Z,993.73
2018-01-01T04:16:16.759Z,993.72
2018-01-01T04:16:57.332Z,993.67
2018-01-01T04:17:37.903Z,993.61
2018-01-01T04:18:18.499Z,993.67
2018-01-01T04:18:59.075Z,993.68
2018-01-01T04:19:39.638Z,993.69
2018-01-01T04:20:20.202Z,993.66
2018-01-01T04:21:00.844Z,993.7
2018-01-01T04:21:41.425Z,993.77
2018-01-01T04:22:21.983Z,993.73
2018-01-01T04:23:02.551Z,993.76
2018-01-01T04:23:43.134Z,993.8
2018-01-01T04:24:23.720Z,993.76
2018-01-01T04:25:04.301Z,993.75
2018-01-01T04:25:44.859Z,993.73
2018-01-01T04:26:25.436Z,993.77
2018-01-01T04:27:06.015Z,993.8
2018-01-01T04:27:46.612Z,993.8
2018-01-01T04:28:27.188Z,993.79
2018-01-01T04:29:07.749Z,993.78
2018-01-01T04:29:48.342Z,993.8
2018-01-01T04:30:28.906Z,993.73
2018-01-01T04:31:09.474Z,993.75
2018-01-01T04:31:50.072Z,993.79
2018-01-01T04:32:30.657Z,993.83
2018-01-01T04:33:11.217Z,993.79
2018-01-01T04:33:51.779Z,993.83
2018-01-01T04:34:32.374Z,993.82
2018-01-01T04:35:12.945Z,993.83
2018-01-01T04:35:53.513Z,993.84
2018-01-01T04:36:34.077Z,993.82
2018-01-01T04:37:14.641Z,993.87
2018-01-01T04:37:55.205Z,993.83
2018-01-01T04:38:35.784Z,993.84
2018-01-01T04:39:16.356Z,993.76
2018-01-01T04:39:56.928Z,993.84
2018-01-01T04:40:37.489Z,993.87
2018-01-01T04:41:18.060Z,993.82
2018-01-01T04:41:58.629Z,993.84
2018-01-01T04:42:39.216Z,993.83
2018-01-01T04:43:19.785Z,993.8
2018-01-01T04:44:00.392Z,993.78
2018-01-01T04:44:40.957Z,993.77
2018-01-01T04:45:21.530Z,993.8
2018-01-01T04:46:02.094Z,993.77
2018-01-01T04:46:42.664Z,993.83
2018-01-01T04:47:23.219Z,993.83
2018-01-01T04:48:03.804Z,993.84
2018-01-01T04:48:44.372Z,993.81
2018-01-01T04:49:24.978Z,993.83
2018-01-01T04:50:05.578Z,993.8
2018-01-01T04:50:46.136Z,993.81
2018-01-01T04:51:26.695Z,993.79
2018-01-01T04:52:07.286Z,993.79
2018-01-01T04:52:47.867Z,993.77
2018-01-01T04:53:28.438Z,993.8
2018-01-01T04:54:09.018Z,993.79
2018-01-01T04:54:49.600Z,993.79
2018-01-01T04:55:30.162Z,993.85
2018-01-01T04:56:10.721Z,993.81
2018-01-01T04:56:51.285Z,993.8
2018-01-01T04:57:31.863Z,993.83
2018-01-01T04:58:12.419Z,993.84
2018-01-01T04:58:53.004Z,993.91
2018-01-01T04:59:33.574Z,993.88
2018-01-01T05:00:14.149Z,993.9
2018-01-01T05:00:54.734Z,993.86
2018-01-01T05:01:35.288Z,993.83
2018-01-01T05:02:15.847Z,993.89
2018-01-01T05:02:56.448Z,993.9
2018-01-01T05:03:37.003Z,993.93
2018-01-01T05:04:17.561Z,993.89
2018-01-01T05:04:58.142Z,993.86
2018-01-01T05:05:38.697Z,993.9
2018-01-01T05:06:19.285Z,993.9
2018-01-01T05:06:59.863Z,993.83
2018-01-01T05:07:40.444Z,993.82
2018-01-01T05:08:21.010Z,993.88
2018-01-01T05:09:01.583Z,993.85
2018-01-01T05:09:42.174Z,993.91
2018-01-01T05:10:22.784Z,993.88
2018-01-01T05:11:03.351Z,993.93
2018-01-01T05:11:43.913Z,993.9
2018-01-01T05:12:24.486Z,993.93
2018-01-01T05:13:05.054Z,993.99
2018-01-01T05:13:45.624Z,993.96
2018-01-01T05:14:26.207Z,993.97
2018-01-01T05:15:06.773Z,993.98
2018-01-01T05:15:47.325Z,993.97
2018-01-01T05:16:27.904Z,993.94
2018-01-01T05:17:08.466Z,993.95
2018-01-01T05:17:49.028Z,993.89
2018-01-01T05:18:29.596Z,993.92
2018-01-01T05:19:10.169Z,993.91
2018-01-01T05:19:50.743Z,993.87
2018-01-01T05:20:31.319Z,993.86
2018-01-01T05:21:11.892Z,993.85
2018-01-01T05:21:52.456Z,993.82
2018-01-01T05:22:33.028Z,993.78
2018-01-01T05:23:13.595Z,993.79
2018-01-01T05:23:54.158Z,993.82
2018-01-01T05:24:34.729Z,993.87
2018-01-01T05:25:15.288Z,993.87
2018-01-01T05:25:55.861Z,993.83
2018-01-01T05:26:36.415Z,993.87
2018-01-01T05:27:16.977Z,993.84
2018-01-01T05:27:57.552Z,993.88
2018-01-01T05:28:38.115Z,993.89
2018-01-01T05:29:19.056Z,993.97
2018-01-01T05:30:12.141Z,993.94
2018-01-01T05:30:52.709Z,993.95
2018-01-01T05:31:33.296Z,993.96
2018-01-01T05:32:13.847Z,993.97
2018-01-01T05:32:54.435Z,993.96
2018-01-01T05:33:35.000Z,993.94
2018-01-01T05:34:15.565Z,994.02
2018-01-01T05:34:56.120Z,993.93
2018-01-01T05:35:36.674Z,993.96
2018-01-01T05:36:17.266Z,993.94
2018-01-01T05:36:57.817Z,993.95
2018-01-01T05:37:38.385Z,993.94
2018-01-01T05:38:18.945Z,993.97
2018-01-01T05:38:59.526Z,993.93
2018-01-01T05:39:40.088Z,994.05
2018-01-01T05:40:20.670Z,994
2018-01-01T05:41:01.222Z,994.02
2018-01-01T05:41:41.793Z,994.1
2018-01-01T05:42:22.364Z,994.07
2018-01-01T05:43:02.947Z,994.07
2018-01-01T05:43:43.533Z,994.11
2018-01-01T05:44:24.101Z,994.09
2018-01-01T05:45:04.663Z,994.09
2018-01-01T05:45:45.232Z,994.14
2018-01-01T05:46:25.798Z,994.12
2018-01-01T05:47:06.366Z,994.16
2018-01-01T05:47:46.936Z,994.23
2018-01-01T05:48:27.511Z,994.21
2018-01-01T05:49:08.075Z,994.21
2018-01-01T05:49:48.638Z,994.19
2018-01-01T05:50:29.219Z,994.2
2018-01-01T05:51:09.787Z,994.15
2018-01-01T05:51:50.337Z,994.18
2018-01-01T05:52:30.907Z,994.22
2018-01-01T05:53:11.470Z,994.15
2018-01-01T05:53:52.035Z,994.15
2018-01-01T05:54:32.583Z,994.15
2018-01-01T05:55:13.143Z,994.06
2018-01-01T05:55:53.709Z,994.06
2018-01-01T05:56:34.287Z,994.06
2018-01-01T05:57:14.862Z,993.95
2018-01-01T05:57:55.461Z,994.06
2018-01-01T05:58:35.996Z,994.03
2018-01-01T05:59:16.556Z,993.97
2018-01-01T05:59:57.122Z,994.05
2018-01-01T06:00:37.693Z,994.08
2018-01-01T06:01:18.255Z,994.12
2018-01-01T06:01:58.823Z,994.16
2018-01-01T06:02:39.382Z,994.14
2018-01-01T06:03:19.957Z,994.16
2018-01-01T06:04:00.517Z,994.17
2018-01-01T06:04:41.083Z,994.21
2018-01-01T06:05:21.653Z,994.29
2018-01-01T06:06:02.224Z,994.25
2018-01-01T06:06:42.784Z,994.29
2018-01-01T06:07:23.354Z,994.33
2018-01-01T06:08:03.914Z,994.37
2018-01-01T06:08:44.487Z,994.34
2018-01-01T06:09:25.079Z,994.31
2018-01-01T06:10:05.671Z,994.38
2018-01-01T06:10:46.238Z,994.35
2018-01-01T06:11:26.808Z,994.37
2018-01-01T06:12:07.371Z,994.39
2018-01-01T06:12:47.943Z,994.39
2018-01-01T06:13:28.545Z,994.41
2018-01-01T06:14:09.105Z,994.45
2018-01-01T06:14:49.675Z,994.5
2018-01-01T06:15:30.249Z,994.59
2018-01-01T06:16:10.833Z,994.58
2018-01-01T06:16:51.402Z,994.61
2018-01-01T06:17:31.992Z,994.66
2018-01-01T06:18:12.563Z,994.61
2018-01-01T06:18:53.126Z,994.66
2018-01-01T06:19:33.723Z,994.59
2018-01-01T06:20:14.299Z,994.64
2018-01-01T06:20:54.863Z,994.74
2018-01-01T06:21:35.419Z,994.64
2018-01-01T06:22:15.987Z,994.86
2018-01-01T06:22:56.545Z,994.77
2018-01-01T06:23:37.113Z,994.74
2018-01-01T06:24:17.672Z,994.86
2018-01-01T06:24:58.235Z,994.83
2018-01-01T06:25:38.792Z,994.79
2018-01-01T06:26:19.374Z,994.83
2018-01-01T06:26:59.933Z,994.94
2018-01-01T06:27:40.508Z,994.84
2018-01-01T06:28:21.065Z,994.93
2018-01-01T06:29:01.629Z,994.94
2018-01-01T06:29:42.191Z,994.78
2018-01-01T06:30:22.748Z,994.85
2018-01-01T06:31:03.299Z,994.87
2018-01-01T06:31:43.876Z,994.78
2018-01-01T06:32:24.445Z,994.83
2018-01-01T06:33:05.045Z,994.89
2018-01-01T06:33:45.601Z,994.94
2018-01-01T06:34:26.154Z,994.92
2018-01-01T06:35:06.726Z,994.94
2018-01-01T06:35:47.283Z,994.94
2018-01-01T06:36:27.842Z,994.94
2018-01-01T06:37:08.397Z,994.94
2018-01-01T06:37:48.997Z,994.95
2018-01-01T06:38:29.572Z,994.95
2018-01-01T06:39:10.139Z,995.01
2018-01-01T06:39:50.698Z,995.04
2018-01-01T06:40:31.259Z,994.99
2018-01-01T06:41:11.833Z,994.93
2018-01-01T06:41:52.410Z,995.13
2018-01-01T06:42:32.970Z,995.05
2018-01-01T06:43:13.560Z,995.06
2018-01-01T06:43:54.134Z,995.12
2018-01-01T06:44:34.724Z,995.17
2018-01-01T06:45:15.286Z,995.19
2018-01-01T06:45:55.849Z,995.15
2018-01-01T06:46:36.424Z,995.32
2018-01-01T06:47:17.001Z,995.06
2018-01-01T06:47:57.575Z,995.21
2018-01-01T06:48:38.135Z,995.22
2018-01-01T06:49:18.685Z,995.21
2018-01-01T06:49:59.240Z,995.23
2018-01-01T06:50:39.798Z,995.22
2018-01-01T06:51:20.383Z,995.25
2018-01-01T06:52:00.944Z,995.13
2018-01-01T06:52:41.520Z,995.23
2018-01-01T06:53:22.090Z,995.24
2018-01-01T06:54:02.661Z,995.21
2018-01-01T06:54:43.227Z,995.14
2018-01-01T06:55:23.788Z,995.17
2018-01-01T06:56:04.348Z,995.13
2018-01-01T06:56:44.914Z,995.12
2018-01-01T06:57:25.490Z,995.13
2018-01-01T06:58:06.042Z,995.1
2018-01-01T06:58:46.599Z,995.19
2018-01-01T06:59:27.172Z,995.21
2018-01-01T07:00:07.742Z,995.23
2018-01-01T07:00:48.301Z,995.22
2018-01-01T07:01:28.865Z,995.26
2018-01-01T07:02:09.447Z,995.27
2018-01-01T07:02:50.001Z,995.18
2018-01-01T07:03:30.562Z,995.18
2018-01-01T07:04:11.108Z,995.19
2018-01-01T07:04:51.667Z,995.22
2018-01-01T07:05:32.232Z,995.27
2018-01-01T07:06:12.837Z,995.3
2018-01-01T07:06:53.417Z,995.33
2018-01-01T07:07:33.977Z,995.32
2018-01-01T07:08:14.542Z,995.18
2018-01-01T07:08:55.115Z,995.26
2018-01-01T07:09:35.671Z,995.27
2018-01-01T07:10:16.237Z,995.21
2018-01-01T07:10:56.816Z,995.3
2018-01-01T07:11:37.388Z,995.33
2018-01-01T07:12:17.998Z,995.31
2018-01-01T07:12:58.573Z,995.4
2018-01-01T07:13:39.137Z,995.33
2018-01-01T07:14:19.689Z,995.41
2018-01-01T07:15:00.257Z,995.44
2018-01-01T07:15:40.822Z,995.45
2018-01-01T07:16:21.387Z,995.4
2018-01-01T07:17:01.972Z,995.46
2018-01-01T07:17:42.538Z,995.36
2018-01-01T07:18:23.092Z,995.24
2018-01-01T07:19:03.661Z,995.33
2018-01-01T07:19:44.219Z,995.38
2018-01-01T07:20:24.786Z,995.24
2018-01-01T07:21:05.348Z,995.24
2018-01-01T07:21:45.925Z,995.27
2018-01-01T07:22:27.333Z,995.21
2018-01-01T07:23:07.896Z,995.19
2018-01-01T07:23:48.483Z,995.31
2018-01-01T07:24:29.047Z,995.34
2018-01-01T07:25:09.621Z,995.25
2018-01-01T07:25:50.177Z,995.33
2018-01-01T07:26:30.745Z,995.35
2018-01-01T07:27:11.311Z,995.36
2018-01-01T07:27:51.895Z,995.39
2018-01-01T07:28:32.453Z,995.26
2018-01-01T07:29:13.035Z,995.38
2018-01-01T07:29:53.591Z,995.43
2018-01-01T07:30:34.161Z,995.44
2018-01-01T07:31:14.734Z,995.49
2018-01-01T07:31:55.299Z,995.5
2018-01-01T07:32:35.868Z,995.46
2018-01-01T07:33:16.425Z,995.55
2018-01-01T07:33:56.994Z,995.57
2018-01-01T07:34:37.553Z,995.58
2018-01-01T07:35:18.118Z,995.62
2018-01-01T07:35:58.670Z,995.64
2018-01-01T07:36:39.244Z,995.61
2018-01-01T07:37:19.802Z,995.57
2018-01-01T07:38:00.354Z,995.69
2018-01-01T07:38:40.920Z,995.67
2018-01-01T07:39:21.477Z,995.73
2018-01-01T07:40:02.034Z,995.76
2018-01-01T07:40:42.591Z,995.73
2018-01-01T07:41:23.161Z,995.68
2018-01-01T07:42:03.725Z,995.7
2018-01-01T07:42:44.288Z,995.69
2018-01-01T07:43:24.849Z,995.71
2018-01-01T07:44:05.413Z,995.73
2018-01-01T07:44:45.979Z,995.77
2018-01-01T07:45:26.547Z,995.76
2018-01-01T07:46:07.109Z,995.79
2018-01-01T07:46:47.675Z,995.81
2018-01-01T07:47:28.235Z,995.77
2018-01-01T07:48:08.810Z,995.79
2018-01-01T07:48:49.367Z,995.78
2018-01-01T07:49:29.934Z,995.76
2018-01-01T07:50:10.493Z,995.78
2018-01-01T07:50:51.056Z,995.75
2018-01-01T07:51:31.607Z,995.82
2018-01-01T07:52:12.173Z,995.8
2018-01-01T07:52:52.741Z,995.8
2018-01-01T07:53:33.298Z,995.79
2018-01-01T07:54:13.857Z,995.79
2018-01-01T07:54:54.426Z,995.77
2018-01-01T07:55:34.981Z,995.83
2018-01-01T07:56:15.560Z,995.75
2018-01-01T07:56:56.119Z,995.82
2018-01-01T07:57:36.676Z,995.83
2018-01-01T07:58:17.233Z,995.87
2018-01-01T07:58:57.812Z,995.87
2018-01-01T07:59:38.384Z,995.86
2018-01-01T08:00:18.954Z,995.88
2018-01-01T08:00:59.528Z,995.91
2018-01-01T08:01:40.138Z,995.89
2018-01-01T08:02:20.727Z,995.97
2018-01-01T08:03:01.290Z,995.97
2018-01-01T08:03:41.851Z,995.94
2018-01-01T08:04:22.418Z,995.94
2018-01-01T08:05:02.992Z,995.93
2018-01-01T08:05:43.571Z,995.96
2018-01-01T08:06:24.185Z,995.97
2018-01-01T08:07:04.741Z,995.97
2018-01-01T08:07:45.332Z,995.9
2018-01-01T08:08:25.934Z,995.96
2018-01-01T08:09:06.512Z,995.88
2018-01-01T08:09:47.088Z,995.96
2018-01-01T08:10:27.653Z,995.93
2018-01-01T08:11:08.209Z,995.97
2018-01-01T08:11:48.811Z,995.93
2018-01-01T08:12:29.394Z,995.94
2018-01-01T08:13:09.953Z,995.96
2018-01-01T08:13:50.517Z,995.99
2018-01-01T08:14:31.084Z,995.98
2018-01-01T08:15:11.656Z,996.05
2018-01-01T08:15:52.206Z,996.01
2018-01-01T08:16:32.773Z,996.05
2018-01-01T08:17:13.331Z,996.06
2018-01-01T08:17:53.905Z,996.14
2018-01-01T08:18:34.478Z,996.08
2018-01-01T08:19:15.070Z,996.08
2018-01-01T08:19:55.635Z,996.13
2018-01-01T08:20:36.206Z,996.14
2018-01-01T08:21:16.765Z,996.16
2018-01-01T08:21:57.328Z,996.15
2018-01-01T08:22:37.896Z,996.19
2018-01-01T08:23:18.469Z,996.14
2018-01-01T08:23:59.040Z,996.21
2018-01-01T08:24:39.602Z,996.24
2018-01-01T08:25:20.171Z,996.23
2018-01-01T08:26:00.723Z,996.23
2018-01-01T08:26:41.297Z,996.22
2018-01-01T08:27:21.861Z,996.27
2018-01-01T08:28:02.426Z,996.21